No particular awareness of the weather is required.    There are no Weather-warnings


Meteo18 Weather Cam more information Meteo18 Weather Cam


Thunder radar more information blitzortung!


Rain radar more information rain snow radar


Visit our other weather sites:

Template documentation
and downloads

And another site



Weather Underground History page Text

Daily Summary for April 12, 2017 Units:  English    Metric   Both
« Previous Day
Next Day »
Daily Weekly Monthly Yearly Custom
  High: Low: Average:
Temperature: TemperatureC °F 2.8 °F 11.7 °F
Dew Point: DewpointC °F 0.3 °F 3.8 °F
Humidity: Humidity % 41 % 60 %
Wind Speed: WindSpeedKMH mph 0.0 mph 2.9 mph
Wind Gust: WindSpeedGustKMH mph - -
Wind:- - SW
Pressure: PressurehPa in 1018.5 in -
Precipitation: 0.0 in    
Historical Graphs
 
 
Tabular Data for April 12, 2017
Time Temperature Dew Point Pressure Wind Wind Speed Wind Gust Humidity Rainfall Rate (Hourly)
TemperatureC °F DewpointC °F PressurehPa in Calm     Humidity % HourlyPrecipMM in
00:02 8.3 °F 2.7 °F 1026.3 in WNW 1.6 mph 3.2 mph 68 % 0.0 in
00:12 8.3 °F 2.5 °F 1026.0 in Calm   3.2 mph 67 % 0.0 in
00:17 8.3 °F 2.5 °F 1026.0 in Calm   3.2 mph 67 % 0.0 in
00:22 8.2 °F 2.4 °F 1026.0 in NW 1.6 mph 3.2 mph 67 % 0.0 in
00:32 7.8 °F 2.3 °F 1026.0 in NNW 1.6 mph 3.2 mph 68 % 0.0 in
00:37 7.7 °F 2.2 °F 1026.0 in Calm   3.2 mph 68 % 0.0 in
00:42 7.7 °F 2.4 °F 1026.0 in Calm   3.2 mph 69 % 0.0 in
00:47 7.6 °F 2.1 °F 1026.0 in NW 1.6 mph 3.2 mph 68 % 0.0 in
00:52 7.6 °F 2.1 °F 1026.0 in NW 1.6 mph 3.2 mph 68 % 0.0 in
00:57 7.7 °F 2.0 °F 1026.0 in NW 1.6 mph 3.2 mph 67 % 0.0 in
01:02 7.8 °F 1.8 °F 1026.0 in Calm   3.2 mph 66 % 0.0 in
01:07 7.7 °F 1.7 °F 1026.0 in NW 1.6 mph 3.2 mph 66 % 0.0 in
01:12 7.7 °F 1.7 °F 1026.0 in NW 1.6 mph 3.2 mph 66 % 0.0 in
01:17 7.6 °F 1.7 °F 1026.0 in NNW 1.6 mph 3.2 mph 66 % 0.0 in
01:22 7.5 °F 1.6 °F 1026.0 in North 1.6 mph 3.2 mph 66 % 0.0 in
01:32 6.8 °F 1.3 °F 1026.0 in NW 3.2 mph 3.2 mph 68 % 0.0 in
01:37 6.3 °F 1.4 °F 1025.6 in WNW 1.6 mph 3.2 mph 71 % 0.0 in
01:42 5.9 °F 1.4 °F 1026.0 in WNW 3.2 mph 3.2 mph 73 % 0.0 in
01:47 5.9 °F 1.4 °F 1025.6 in WNW 1.6 mph 3.2 mph 73 % 0.0 in
01:57 5.8 °F 1.3 °F 1025.6 in Calm   3.2 mph 73 % 0.0 in
02:02 5.7 °F 1.4 °F 1025.6 in WNW 1.6 mph 1.6 mph 74 % 0.0 in
02:07 5.3 °F 1.4 °F 1025.6 in WNW 1.6 mph 1.6 mph 76 % 0.0 in
02:12 5.2 °F 1.3 °F 1025.6 in Calm   1.6 mph 76 % 0.0 in
02:17 5.2 °F 1.3 °F 1025.6 in Calm   1.6 mph 76 % 0.0 in
02:22 5.3 °F 1.2 °F 1025.3 in Calm   1.6 mph 75 % 0.0 in
02:32 5.4 °F 1.1 °F 1025.3 in WNW 1.6 mph 1.6 mph 74 % 0.0 in
02:37 5.4 °F 1.3 °F 1025.3 in WNW 1.6 mph 1.6 mph 75 % 0.0 in
02:42 5.2 °F 1.3 °F 1025.3 in Calm   1.6 mph 76 % 0.0 in
02:47 5.2 °F 1.3 °F 1025.3 in Calm   1.6 mph 76 % 0.0 in
02:52 5.2 °F 1.3 °F 1025.3 in Calm   1.6 mph 76 % 0.0 in
02:57 5.3 °F 1.2 °F 1024.9 in Calm   1.6 mph 75 % 0.0 in
03:02 5.4 °F 1.1 °F 1024.9 in WNW 1.6 mph 1.6 mph 74 % 0.0 in
03:07 5.4 °F 1.1 °F 1024.9 in WNW 1.6 mph 3.2 mph 74 % 0.0 in
03:12 5.7 °F 1.2 °F 1024.9 in Calm   3.2 mph 73 % 0.0 in
03:17 5.9 °F 1.2 °F 1024.9 in North 1.6 mph 3.2 mph 72 % 0.0 in
03:22 6.2 °F 1.1 °F 1024.9 in NW 1.6 mph 3.2 mph 70 % 0.0 in
03:32 5.7 °F 1.0 °F 1024.9 in Calm   3.2 mph 72 % 0.0 in
03:37 5.3 °F 0.9 °F 1024.9 in Calm   3.2 mph 73 % 0.0 in
03:42 5.7 °F 1.2 °F 1024.9 in Calm   3.2 mph 73 % 0.0 in
03:52 5.1 °F 1.0 °F 1024.6 in NW 1.6 mph 3.2 mph 75 % 0.0 in
03:57 5.3 °F 1.2 °F 1024.6 in Calm   3.2 mph 75 % 0.0 in
04:02 5.2 °F 1.1 °F 1024.6 in Calm   3.2 mph 75 % 0.0 in
04:07 4.8 °F 0.9 °F 1024.6 in Calm   1.6 mph 76 % 0.0 in
04:12 4.7 °F 1.0 °F 1024.6 in Calm   1.6 mph 77 % 0.0 in
04:17 4.8 °F 1.1 °F 1024.6 in Calm     77 % 0.0 in
04:22 4.8 °F 1.1 °F 1024.3 in Calm     77 % 0.0 in
04:32 5.1 °F 1.2 °F 1024.3 in Calm     76 % 0.0 in
04:37 5.4 °F 1.1 °F 1024.3 in Calm     74 % 0.0 in
04:42 5.3 °F 1.2 °F 1024.3 in WNW 3.2 mph 3.2 mph 75 % 0.0 in
04:47 5.0 °F 1.1 °F 1024.3 in WNW 1.6 mph 3.2 mph 76 % 0.0 in
04:52 5.0 °F 1.1 °F 1024.3 in Calm   3.2 mph 76 % 0.0 in
04:57 4.9 °F 1.0 °F 1024.3 in Calm   3.2 mph 76 % 0.0 in
05:02 4.8 °F 0.9 °F 1024.3 in Calm   3.2 mph 76 % 0.0 in
05:12 4.7 °F 0.8 °F 1024.3 in Calm   1.6 mph 76 % 0.0 in
05:17 4.6 °F 0.9 °F 1024.3 in Calm   1.6 mph 77 % 0.0 in
05:22 4.4 °F 0.7 °F 1024.3 in Calm   1.6 mph 77 % 0.0 in
05:27 4.1 °F 0.6 °F 1024.3 in Calm   1.6 mph 78 % 0.0 in
05:32 3.7 °F 0.6 °F 1024.3 in Calm   1.6 mph 80 % 0.0 in
05:37 3.3 °F 0.4 °F 1023.9 in Calm   1.6 mph 81 % 0.0 in
05:42 3.1 °F 0.3 °F 1023.9 in Calm   1.6 mph 82 % 0.0 in
05:47 2.9 °F 0.3 °F 1023.9 in WNW 3.2 mph 3.2 mph 83 % 0.0 in
05:52 3.1 °F 0.7 °F 1023.9 in WNW 1.6 mph 3.2 mph 84 % 0.0 in
06:02 3.6 °F 1.0 °F 1023.9 in Calm   4.8 mph 83 % 0.0 in
06:12 3.6 °F 0.6 °F 1023.9 in Calm   3.2 mph 81 % 0.0 in
06:17 3.4 °F 0.6 °F 1023.9 in WNW 1.6 mph 1.6 mph 82 % 0.0 in
06:22 3.3 °F 0.4 °F 1023.9 in Calm   1.6 mph 81 % 0.0 in
06:27 3.2 °F 0.4 °F 1023.9 in Calm   1.6 mph 82 % 0.0 in
06:32 3.3 °F 0.7 °F 1023.9 in Calm   1.6 mph 83 % 0.0 in
06:37 3.3 °F 0.7 °F 1023.9 in Calm   1.6 mph 83 % 0.0 in
06:42 3.3 °F 0.7 °F 1023.9 in Calm   1.6 mph 83 % 0.0 in
06:47 3.3 °F 0.5 °F 1023.9 in Calm   1.6 mph 82 % 0.0 in
06:52 3.2 °F 0.4 °F 1023.9 in Calm   1.6 mph 82 % 0.0 in
06:57 3.1 °F 0.5 °F 1023.9 in Calm   1.6 mph 83 % 0.0 in
07:02 3.0 °F 0.6 °F 1023.9 in Calm   1.6 mph 84 % 0.0 in
07:12 2.9 °F 0.5 °F 1023.9 in Calm   1.6 mph 84 % 0.0 in
07:17 2.9 °F 0.5 °F 1023.6 in Calm   1.6 mph 84 % 0.0 in
07:22 2.8 °F 0.5 °F 1023.9 in Calm   1.6 mph 85 % 0.0 in
07:32 2.8 °F 0.5 °F 1023.9 in Calm   1.6 mph 85 % 0.0 in
07:37 3.1 °F 0.8 °F 1023.9 in WNW 1.6 mph 1.6 mph 85 % 0.0 in
07:42 3.4 °F 1.0 °F 1023.9 in Calm   1.6 mph 84 % 0.0 in
07:52 4.2 °F 1.2 °F 1024.3 in Calm   1.6 mph 81 % 0.0 in
07:57 4.3 °F 1.2 °F 1024.3 in Calm     80 % 0.0 in
08:07 4.8 °F 1.6 °F 1024.3 in Calm     80 % 0.0 in
08:12 5.5 °F 2.7 °F 1024.3 in Calm     82 % 0.0 in
08:17 6.1 °F 2.4 °F 1024.3 in Calm     77 % 0.0 in
08:22 6.1 °F 2.2 °F 1024.3 in Calm     76 % 0.0 in
08:27 5.9 °F 2.5 °F 1024.3 in Calm     79 % 0.0 in
08:32 6.2 °F 3.0 °F 1024.3 in Calm     80 % 0.0 in
08:42 7.4 °F 3.8 °F 1024.6 in NNW 1.6 mph 1.6 mph 78 % 0.0 in
08:47 7.8 °F 3.8 °F 1024.6 in Calm   4.8 mph 76 % 0.0 in
08:52 8.3 °F 3.5 °F 1024.6 in Calm   4.8 mph 72 % 0.0 in
08:59 8.7 °F 3.9 °F 1024.6 in Calm   4.8 mph 72 % 0.0 in
09:07 9.5 °F 4.7 °F 1024.6 in Calm   1.6 mph 72 % 0.0 in
09:12 10.1 °F 5.1 °F 1024.3 in Calm   1.6 mph 71 % 0.0 in
09:17 10.4 °F 4.5 °F 1024.6 in Calm     67 % 0.0 in
09:22 10.8 °F 4.7 °F 1024.3 in Calm     66 % 0.0 in
09:32 11.1 °F 4.3 °F 1024.3 in North 3.2 mph   63 % 0.0 in
09:42 11.4 °F 4.8 °F 1024.3 in Calm   4.8 mph 64 % 0.0 in
09:47 11.7 °F 5.1 °F 1024.3 in NE 1.6 mph 6.4 mph 64 % 0.0 in
09:52 11.9 °F 5.1 °F 1024.3 in NE 3.2 mph 6.4 mph 63 % 0.0 in
09:57 12.1 °F 4.8 °F 1024.3 in Calm   4.8 mph 61 % 0.0 in
10:02 12.4 °F 5.1 °F 1024.3 in Calm   4.8 mph 61 % 0.0 in
10:07 12.7 °F 5.1 °F 1024.3 in North 1.6 mph 3.2 mph 60 % 0.0 in
10:12 12.7 °F 4.6 °F 1024.3 in Calm   3.2 mph 58 % 0.0 in
10:17 13.0 °F 5.2 °F 1024.3 in Calm   4.8 mph 59 % 0.0 in
10:22 12.9 °F 3.8 °F 1024.3 in East 3.2 mph 4.8 mph 54 % 0.0 in
10:32 13.0 °F 3.9 °F 1024.3 in Calm   6.4 mph 54 % 0.0 in
10:37 12.9 °F 3.8 °F 1024.3 in SE 1.6 mph 6.4 mph 54 % 0.0 in
10:42 13.2 °F 3.8 °F 1024.3 in SE 1.6 mph 6.4 mph 53 % 0.0 in
10:47 13.6 °F 4.5 °F 1024.3 in Calm   6.4 mph 54 % 0.0 in
10:52 14.0 °F 4.6 °F 1024.3 in ESE 1.6 mph 6.4 mph 53 % 0.0 in
10:57 13.9 °F 4.2 °F 1024.3 in SE 1.6 mph 6.4 mph 52 % 0.0 in
11:02 13.9 °F 3.9 °F 1023.9 in Calm   6.4 mph 51 % 0.0 in
11:12 14.1 °F 3.5 °F 1023.9 in Calm   6.4 mph 49 % 0.0 in
11:17 14.5 °F 4.5 °F 1023.9 in East 3.2 mph 6.4 mph 51 % 0.0 in
11:22 14.6 °F 4.0 °F 1023.9 in Calm   6.4 mph 49 % 0.0 in
11:32 15.2 °F 4.3 °F 1023.9 in Calm   4.8 mph 48 % 0.0 in
11:37 14.9 °F 4.0 °F 1023.9 in Calm   4.8 mph 48 % 0.0 in
11:42 15.1 °F 4.2 °F 1023.9 in ESE 3.2 mph 4.8 mph 48 % 0.0 in
11:52 15.8 °F 4.2 °F 1023.9 in SE 3.2 mph 4.8 mph 46 % 0.0 in
11:57 15.7 °F 4.1 °F 1023.9 in SE 1.6 mph 4.8 mph 46 % 0.0 in
12:02 15.4 °F 4.4 °F 1023.6 in South 1.6 mph 8.0 mph 48 % 0.0 in
12:12 15.5 °F 4.2 °F 1023.6 in ENE 6.4 mph 8.0 mph 47 % 0.0 in
12:17 15.4 °F 4.7 °F 1023.6 in East 1.6 mph 8.0 mph 49 % 0.0 in
12:22 15.4 °F 4.1 °F 1023.6 in North 4.8 mph 8.0 mph 47 % 0.0 in
12:27 15.3 °F 4.1 °F 1023.2 in Calm   6.4 mph 47 % 0.0 in
12:32 15.3 °F 4.1 °F 1023.2 in NE 6.4 mph 6.4 mph 47 % 0.0 in
12:42 15.6 °F 4.3 °F 1023.2 in East 4.8 mph 9.7 mph 47 % 0.0 in
12:52 16.2 °F 4.9 °F 1023.2 in Calm   9.7 mph 47 % 0.0 in
12:57 16.4 °F 4.7 °F 1022.9 in Calm   9.7 mph 46 % 0.0 in
13:02 16.3 °F 4.3 °F 1022.9 in SSE 4.8 mph 8.0 mph 45 % 0.0 in
13:12 16.1 °F 4.5 °F 1022.9 in ENE 6.4 mph 8.0 mph 46 % 0.0 in
13:17 16.1 °F 4.8 °F 1022.9 in NNE 3.2 mph 8.0 mph 47 % 0.0 in
13:22 15.9 °F 4.6 °F 1022.6 in ESE 3.2 mph 8.0 mph 47 % 0.0 in
13:32 16.2 °F 4.9 °F 1022.6 in SSE 3.2 mph 9.7 mph 47 % 0.0 in
13:37 16.4 °F 4.7 °F 1022.2 in ENE 3.2 mph 9.7 mph 46 % 0.0 in
13:42 16.2 °F 4.9 °F 1022.2 in ENE 3.2 mph 8.0 mph 47 % 0.0 in
13:47 16.1 °F 4.8 °F 1022.2 in Calm   8.0 mph 47 % 0.0 in
13:52 16.5 °F 5.1 °F 1022.2 in Calm   8.0 mph 47 % 0.0 in
13:57 16.9 °F 4.2 °F 1022.2 in SE 4.8 mph 8.0 mph 43 % 0.0 in
14:02 16.9 °F 4.2 °F 1022.2 in SW 4.8 mph 9.7 mph 43 % 0.0 in
14:12 17.2 °F 5.5 °F 1021.9 in SW 8.0 mph 12.9 mph 46 % 0.0 in
14:17 17.4 °F 5.0 °F 1021.9 in West 3.2 mph 12.9 mph 44 % 0.0 in
14:22 17.2 °F 4.8 °F 1021.9 in West 4.8 mph 16.1 mph 44 % 0.0 in
14:27 17.2 °F 5.5 °F 1021.9 in SW 6.4 mph 16.1 mph 46 % 0.0 in
14:32 17.2 °F 5.8 °F 1021.6 in ESE 4.8 mph 16.1 mph 47 % 0.0 in
14:37 17.3 °F 5.3 °F 1021.6 in WSW 6.4 mph 12.9 mph 45 % 0.0 in
14:42 17.3 °F 5.3 °F 1021.6 in South 6.4 mph 12.9 mph 45 % 0.0 in
14:47 17.2 °F 5.2 °F 1021.6 in WSW 6.4 mph 12.9 mph 45 % 0.0 in
14:52 17.2 °F 5.8 °F 1021.6 in SW 6.4 mph 16.1 mph 47 % 0.0 in
14:57 17.1 °F 5.4 °F 1021.6 in SW 3.2 mph 16.1 mph 46 % 0.0 in
15:02 17.3 °F 5.3 °F 1021.6 in SW 8.0 mph 14.5 mph 45 % 0.0 in
15:12 17.5 °F 6.1 °F 1021.2 in SSW 3.2 mph 14.5 mph 47 % 0.0 in
15:22 17.6 °F 5.2 °F 1021.2 in East 1.6 mph 12.9 mph 44 % 0.0 in
15:32 18.0 °F 5.9 °F 1020.9 in SSE 8.0 mph 12.9 mph 45 % 0.0 in
15:37 18.2 °F 5.7 °F 1020.9 in SSW 12.9 mph 14.5 mph 44 % 0.0 in
15:42 18.1 °F 5.3 °F 1020.9 in SW 3.2 mph 14.5 mph 43 % 0.0 in
15:52 18.3 °F 6.5 °F 1020.5 in ESE 11.3 mph 12.9 mph 46 % 0.0 in
15:57 18.3 °F 6.5 °F 1020.5 in South 4.8 mph 14.5 mph 46 % 0.0 in
16:02 18.2 °F 5.4 °F 1020.5 in SW 6.4 mph 14.5 mph 43 % 0.0 in
16:12 18.2 °F 5.7 °F 1020.2 in SSW 3.2 mph 19.3 mph 44 % 0.0 in
16:17 18.2 °F 6.1 °F 1020.2 in SSW 1.6 mph 19.3 mph 45 % 0.0 in
16:22 18.3 °F 5.5 °F 1020.2 in SW 17.7 mph 17.7 mph 43 % 0.0 in
16:27 18.5 °F 5.7 °F 1020.2 in SW 12.9 mph 20.9 mph 43 % 0.0 in
16:32 18.6 °F 5.1 °F 1020.2 in SSW 11.3 mph 20.9 mph 41 % 0.0 in
16:37 18.5 °F 5.7 °F 1019.9 in SE 4.8 mph 20.9 mph 43 % 0.0 in
16:42 18.6 °F 5.4 °F 1019.9 in SE 1.6 mph 20.9 mph 42 % 0.0 in
16:47 18.8 °F 6.0 °F 1019.9 in South 11.3 mph 20.9 mph 43 % 0.0 in
16:52 18.6 °F 5.4 °F 1019.9 in West 1.6 mph 14.5 mph 42 % 0.0 in
16:57 18.6 °F 5.4 °F 1019.9 in NW 3.2 mph 14.5 mph 42 % 0.0 in
17:02 18.7 °F 5.9 °F 1019.9 in NW 4.8 mph 12.9 mph 43 % 0.0 in
17:07 18.9 °F 6.0 °F 1019.5 in WSW 6.4 mph 14.5 mph 43 % 0.0 in
17:12 18.8 °F 6.3 °F 1019.5 in Calm   16.1 mph 44 % 0.0 in
17:17 18.8 °F 6.0 °F 1019.5 in WSW 3.2 mph 16.1 mph 43 % 0.0 in
17:22 18.9 °F 6.4 °F 1019.5 in WNW 9.7 mph 16.1 mph 44 % 0.0 in
17:27 18.7 °F 5.9 °F 1019.5 in WSW 4.8 mph 12.9 mph 43 % 0.0 in
17:32 18.8 °F 6.0 °F 1019.5 in WSW 14.5 mph 14.5 mph 43 % 0.0 in
17:37 18.8 °F 6.3 °F 1019.5 in WNW 4.8 mph 16.1 mph 44 % 0.0 in
17:42 19.1 °F 6.6 °F 1019.5 in WNW 6.4 mph 16.1 mph 44 % 0.0 in
17:47 18.9 °F 5.7 °F 1019.5 in WSW 4.8 mph 14.5 mph 42 % 0.0 in
17:52 18.9 °F 6.4 °F 1019.5 in SW 8.0 mph 14.5 mph 44 % 0.0 in
17:57 19.0 °F 6.5 °F 1019.2 in WNW 12.9 mph 14.5 mph 44 % 0.0 in
18:02 19.0 °F 6.1 °F 1019.2 in West 12.9 mph 16.1 mph 43 % 0.0 in
18:12 19.0 °F 6.1 °F 1019.2 in WSW 8.0 mph 16.1 mph 43 % 0.0 in
18:22 19.1 °F 6.2 °F 1019.2 in SW 4.8 mph 14.5 mph 43 % 0.0 in
18:27 19.1 °F 6.6 °F 1019.2 in West 14.5 mph 14.5 mph 44 % 0.0 in
18:32 19.0 °F 6.5 °F 1019.2 in West 9.7 mph 14.5 mph 44 % 0.0 in
18:42 19.0 °F 6.1 °F 1018.8 in SW 8.0 mph 20.9 mph 43 % 0.0 in
18:47 19.0 °F 6.5 °F 1018.8 in SSW 8.0 mph 20.9 mph 44 % 0.0 in
18:52 18.9 °F 6.0 °F 1018.8 in West 6.4 mph 20.9 mph 43 % 0.0 in
18:57 18.9 °F 6.0 °F 1018.8 in WSW 4.8 mph 17.7 mph 43 % 0.0 in
19:02 18.8 °F 6.0 °F 1018.8 in SSW 8.0 mph 17.7 mph 43 % 0.0 in
19:12 18.7 °F 5.9 °F 1018.8 in SSW 9.7 mph 17.7 mph 43 % 0.0 in
19:17 18.7 °F 5.9 °F 1018.8 in WSW 11.3 mph 16.1 mph 43 % 0.0 in
19:22 18.6 °F 6.1 °F 1018.8 in SW 4.8 mph 19.3 mph 44 % 0.0 in
19:32 18.4 °F 6.3 °F 1018.8 in SSW 8.0 mph 19.3 mph 45 % 0.0 in
19:37 18.3 °F 6.5 °F 1018.8 in SW 8.0 mph 16.1 mph 46 % 0.0 in
19:42 18.3 °F 6.5 °F 1018.8 in WSW 3.2 mph 16.1 mph 46 % 0.0 in
19:47 18.2 °F 6.4 °F 1018.5 in WSW 6.4 mph 14.5 mph 46 % 0.0 in
19:52 18.0 °F 6.2 °F 1018.8 in West 6.4 mph 11.3 mph 46 % 0.0 in
19:57 17.7 °F 5.9 °F 1018.8 in WSW 8.0 mph 16.1 mph 46 % 0.0 in
20:02 17.5 °F 6.1 °F 1018.8 in West 8.0 mph 20.9 mph 47 % 0.0 in
20:07 17.2 °F 6.1 °F 1018.8 in WSW 8.0 mph 20.9 mph 48 % 0.0 in
20:12 17.0 °F 6.2 °F 1018.8 in West 6.4 mph 20.9 mph 49 % 0.0 in
20:22 16.6 °F 6.4 °F 1018.8 in West 3.2 mph 14.5 mph 51 % 0.0 in
20:32 16.2 °F 6.6 °F 1018.8 in WSW 9.7 mph 12.9 mph 53 % 0.0 in
20:37 16.1 °F 6.5 °F 1018.8 in West 6.4 mph 12.9 mph 53 % 0.0 in
20:47 15.6 °F 6.6 °F 1018.8 in West 4.8 mph 9.7 mph 55 % 0.0 in
20:52 15.5 °F 6.8 °F 1018.8 in WSW 6.4 mph 9.7 mph 56 % 0.0 in
21:02 15.1 °F 6.9 °F 1018.8 in WSW 8.0 mph 9.7 mph 58 % 0.0 in
21:12 14.6 °F 6.9 °F 1019.2 in West 3.2 mph 9.7 mph 60 % 0.0 in
21:17 14.4 °F 6.7 °F 1019.2 in WSW 6.4 mph 9.7 mph 60 % 0.0 in
21:22 14.4 °F 6.7 °F 1019.2 in West 1.6 mph 8.0 mph 60 % 0.0 in
21:32 14.3 °F 6.6 °F 1019.2 in WSW 3.2 mph 8.0 mph 60 % 0.0 in
21:37 14.2 °F 6.8 °F 1019.2 in WNW 4.8 mph 6.4 mph 61 % 0.0 in
21:47 13.5 °F 6.6 °F 1019.5 in NNW 1.6 mph 6.4 mph 63 % 0.0 in
21:57 13.6 °F 6.2 °F 1019.5 in NW 3.2 mph 6.4 mph 61 % 0.0 in
22:02 13.6 °F 6.0 °F 1019.5 in WNW 1.6 mph 6.4 mph 60 % 0.0 in
22:12 13.6 °F 6.0 °F 1019.5 in WNW 1.6 mph 8.0 mph 60 % 0.0 in
22:17 13.4 °F 5.8 °F 1019.5 in WNW 3.2 mph 8.0 mph 60 % 0.0 in
22:22 13.4 °F 5.8 °F 1019.5 in WNW 1.6 mph 8.0 mph 60 % 0.0 in
22:32 13.4 °F 5.5 °F 1019.5 in WNW 1.6 mph 8.0 mph 59 % 0.0 in
22:37 13.4 °F 5.5 °F 1019.5 in WNW 3.2 mph 8.0 mph 59 % 0.0 in
22:42 13.3 °F 5.5 °F 1019.5 in NW 3.2 mph 8.0 mph 59 % 0.0 in
22:47 13.3 °F 5.7 °F 1019.5 in WNW 4.8 mph 8.0 mph 60 % 0.0 in
22:52 13.3 °F 5.7 °F 1019.5 in WNW 1.6 mph 6.4 mph 60 % 0.0 in
22:57 13.2 °F 5.6 °F 1019.5 in Calm   4.8 mph 60 % 0.0 in
23:02 13.1 °F 5.7 °F 1019.5 in NW 1.6 mph 4.8 mph 61 % 0.0 in
23:07 13.1 °F 5.7 °F 1019.5 in West 1.6 mph 4.8 mph 61 % 0.0 in
23:17 12.6 °F 5.5 °F 1019.5 in Calm   4.8 mph 62 % 0.0 in
23:22 12.5 °F 5.6 °F 1019.5 in Calm   3.2 mph 63 % 0.0 in
23:32 12.3 °F 5.7 °F 1019.5 in WNW 3.2 mph 3.2 mph 64 % 0.0 in
23:37 12.2 °F 5.6 °F 1019.5 in WNW 4.8 mph 4.8 mph 64 % 0.0 in
23:42 12.2 °F 5.6 °F 1019.5 in WNW 3.2 mph 4.8 mph 64 % 0.0 in
23:47 12.1 °F 5.7 °F 1019.5 in West 3.2 mph 6.4 mph 65 % 0.0 in
23:52 12.1 °F 5.7 °F 1019.5 in WNW 3.2 mph 6.4 mph 65 % 0.0 in
23:57 12.1 °F 5.7 °F 1019.5 in West 1.6 mph 6.4 mph 65 % 0.0 in
Meteo18
Compliments of Weather Underground - 4 mb

Script developed by  Jim McMurry - jmcmurry@mwt.net Adapted for the template by  Wim van der Kuil - Leuven-Template.eu

You find our weather info also at:

European Weather Network

Weather Underground

Equipment we use:

Weather-station
Davis Vue

Weather-program
Meteobridge

Weather-server
Raspberry PI 2 B+

Provider
1 and 1

Davis Vue

Meteobridge

Raspberry PI 2 B+

1 and 1